SVA328 HESH-OERK
Flight info
| Callsign | SVA328 |
|---|---|
| Flight time | 1h 58m |
| Altitude | 37000 |
| Route | PASUM1L PASUM L677 RAGPU N316 HLF J874 GAS G662 SIVIS SIVIS1F |
| Aircraft | A320/M-SDE3FGHIRWY/LB1 |
Departure
| Time | 2026-05-07 21:33 |
|---|---|
| Airport | Sharm El Sheikh International Airport (HESH) |
Arrival
| Time | 2026-05-07 23:32 |
|---|---|
| Airport | King Khalid International Airport (OERK) |
| Time | Latitude | Longitude | Altitude | Speed | Heading |
|---|---|---|---|---|---|
| 2026-05-07 21:15 | 27.97532 | 34.38523 | 137 ft | 0 kts | 313° |
| 2026-05-07 21:23 | 27.97529 | 34.38526 | 137 ft | 2 kts | 313° |
| 2026-05-07 21:23 | 27.97518 | 34.38540 | 137 ft | 2 kts | 313° |
| 2026-05-07 21:23 | 27.97507 | 34.38554 | 137 ft | 2 kts | 313° |
| 2026-05-07 21:23 | 27.97495 | 34.38568 | 137 ft | 2 kts | 313° |
| 2026-05-07 21:24 | 27.97485 | 34.38585 | 137 ft | 3 kts | 287° |
| 2026-05-07 21:24 | 27.97481 | 34.38604 | 138 ft | 3 kts | 267° |
| 2026-05-07 21:24 | 27.97485 | 34.38624 | 138 ft | 3 kts | 233° |
| 2026-05-07 21:24 | 27.97488 | 34.38629 | 138 ft | 0 kts | 221° |
| 2026-05-07 21:25 | 27.97486 | 34.38627 | 138 ft | 4 kts | 221° |
| 2026-05-07 21:25 | 27.97435 | 34.38574 | 138 ft | 15 kts | 224° |
| 2026-05-07 21:26 | 27.97360 | 34.38496 | 138 ft | 14 kts | 221° |
| 2026-05-07 21:26 | 27.97297 | 34.38429 | 139 ft | 12 kts | 223° |
| 2026-05-07 21:26 | 27.97242 | 34.38373 | 139 ft | 10 kts | 222° |
| 2026-05-07 21:26 | 27.97196 | 34.38325 | 140 ft | 8 kts | 223° |
| 2026-05-07 21:27 | 27.97158 | 34.38284 | 140 ft | 7 kts | 224° |
| 2026-05-07 21:27 | 27.97126 | 34.38251 | 140 ft | 6 kts | 223° |
| 2026-05-07 21:27 | 27.97085 | 34.38208 | 140 ft | 12 kts | 222° |
| 2026-05-07 21:27 | 27.97059 | 34.38181 | 140 ft | 3 kts | 222° |
| 2026-05-07 21:28 | 27.97052 | 34.38174 | 140 ft | 0 kts | 222° |
| 2026-05-07 21:29 | 27.97042 | 34.38164 | 140 ft | 5 kts | 222° |
| 2026-05-07 21:29 | 27.97022 | 34.38143 | 140 ft | 3 kts | 222° |
| 2026-05-07 21:29 | 27.97006 | 34.38129 | 141 ft | 3 kts | 211° |
| 2026-05-07 21:29 | 27.96962 | 34.38140 | 141 ft | 7 kts | 138° |
| 2026-05-07 21:30 | 27.96945 | 34.38160 | 141 ft | 0 kts | 133° |
| 2026-05-07 21:30 | 27.96943 | 34.38162 | 141 ft | 3 kts | 133° |
| 2026-05-07 21:31 | 27.96918 | 34.38192 | 142 ft | 5 kts | 133° |
| 2026-05-07 21:31 | 27.96892 | 34.38223 | 142 ft | 7 kts | 133° |
| 2026-05-07 21:31 | 27.96868 | 34.38263 | 142 ft | 5 kts | 107° |
| 2026-05-07 21:31 | 27.96876 | 34.38295 | 142 ft | 4 kts | 57° |
| 2026-05-07 21:32 | 27.96888 | 34.38309 | 142 ft | 0 kts | 45° |
| 2026-05-07 21:32 | 27.96938 | 34.38362 | 142 ft | 39 kts | 42° |
| 2026-05-07 21:33 | 27.97327 | 34.38764 | 140 ft | 109 kts | 43° |
| 2026-05-07 21:33 | 27.98031 | 34.39490 | 136 ft | 163 kts | 43° |
| 2026-05-07 21:33 | 27.98909 | 34.40445 | 546 ft | 178 kts | 43° |
| 2026-05-07 21:33 | 27.99788 | 34.41468 | 1267 ft | 184 kts | 42° |
| 2026-05-07 21:34 | 28.00719 | 34.42473 | 1907 ft | 191 kts | 41° |
| 2026-05-07 21:34 | 28.01701 | 34.43572 | 2493 ft | 201 kts | 42° |
| 2026-05-07 21:34 | 28.02714 | 34.44685 | 3136 ft | 209 kts | 42° |
| 2026-05-07 21:34 | 28.03775 | 34.45855 | 3803 ft | 217 kts | 42° |
| 2026-05-07 21:35 | 28.04873 | 34.47078 | 4487 ft | 225 kts | 43° |
| 2026-05-07 21:35 | 28.05940 | 34.48390 | 5249 ft | 227 kts | 52° |
| 2026-05-07 21:35 | 28.06795 | 34.49909 | 5992 ft | 231 kts | 63° |
| 2026-05-07 21:35 | 28.07437 | 34.51601 | 6688 ft | 237 kts | 72° |
| 2026-05-07 21:36 | 28.07854 | 34.53434 | 7338 ft | 244 kts | 80° |
| 2026-05-07 21:36 | 28.08029 | 34.55373 | 8011 ft | 252 kts | 88° |
| 2026-05-07 21:36 | 28.07937 | 34.57384 | 8674 ft | 260 kts | 97° |
| 2026-05-07 21:36 | 28.07569 | 34.59426 | 9331 ft | 270 kts | 105° |
| 2026-05-07 21:37 | 28.06932 | 34.61429 | 9973 ft | 279 kts | 114° |
| 2026-05-07 21:37 | 28.06000 | 34.63435 | 10529 ft | 290 kts | 122° |
| 2026-05-07 21:37 | 28.04825 | 34.65304 | 11089 ft | 300 kts | 130° |
| 2026-05-07 21:37 | 28.03396 | 34.67053 | 11783 ft | 305 kts | 137° |
| 2026-05-07 21:38 | 28.01759 | 34.68620 | 12413 ft | 312 kts | 145° |
| 2026-05-07 21:38 | 27.99924 | 34.69984 | 13028 ft | 319 kts | 152° |
| 2026-05-07 21:38 | 27.97931 | 34.71162 | 13561 ft | 331 kts | 157° |
| 2026-05-07 21:38 | 27.95730 | 34.72166 | 13716 ft | 352 kts | 162° |
| 2026-05-07 21:39 | 27.93345 | 34.73079 | 13836 ft | 373 kts | 164° |
| 2026-05-07 21:39 | 27.90831 | 34.74038 | 14061 ft | 389 kts | 162° |
| 2026-05-07 21:39 | 27.88259 | 34.75093 | 14555 ft | 396 kts | 161° |
| 2026-05-07 21:39 | 27.85677 | 34.76243 | 15112 ft | 401 kts | 159° |
| 2026-05-07 21:40 | 27.83096 | 34.77463 | 15679 ft | 405 kts | 158° |
| 2026-05-07 21:40 | 27.80495 | 34.78734 | 16263 ft | 410 kts | 158° |
| 2026-05-07 21:40 | 27.77904 | 34.80015 | 16836 ft | 414 kts | 158° |
| 2026-05-07 21:40 | 27.75256 | 34.81320 | 17398 ft | 418 kts | 158° |
| 2026-05-07 21:41 | 27.72566 | 34.82633 | 17978 ft | 423 kts | 158° |
| 2026-05-07 21:41 | 27.69846 | 34.83948 | 18497 ft | 427 kts | 158° |
| 2026-05-07 21:41 | 27.67106 | 34.85262 | 18995 ft | 431 kts | 158° |
| 2026-05-07 21:41 | 27.64332 | 34.86584 | 19489 ft | 434 kts | 158° |
| 2026-05-07 21:42 | 27.61534 | 34.87912 | 19984 ft | 437 kts | 158° |
| 2026-05-07 21:42 | 27.58727 | 34.89246 | 20465 ft | 440 kts | 158° |
| 2026-05-07 21:42 | 27.56035 | 34.90842 | 20920 ft | 445 kts | 147° |
| 2026-05-07 21:42 | 27.53591 | 34.93051 | 21390 ft | 448 kts | 135° |
| 2026-05-07 21:43 | 27.51615 | 34.95708 | 21840 ft | 449 kts | 123° |
| 2026-05-07 21:43 | 27.50100 | 34.98775 | 22300 ft | 450 kts | 112° |
| 2026-05-07 21:43 | 27.49104 | 35.02120 | 22752 ft | 451 kts | 103° |
| 2026-05-07 21:43 | 27.48315 | 35.05547 | 23191 ft | 453 kts | 103° |
| 2026-05-07 21:44 | 27.47522 | 35.08979 | 23589 ft | 455 kts | 103° |
| 2026-05-07 21:44 | 27.46720 | 35.12437 | 23936 ft | 457 kts | 103° |
| 2026-05-07 21:44 | 27.45909 | 35.15909 | 24278 ft | 459 kts | 103° |
| 2026-05-07 21:44 | 27.45095 | 35.19383 | 24627 ft | 461 kts | 103° |
| 2026-05-07 21:45 | 27.44276 | 35.22882 | 24959 ft | 462 kts | 104° |
| 2026-05-07 21:45 | 27.43448 | 35.26429 | 25298 ft | 464 kts | 104° |
| 2026-05-07 21:45 | 27.42627 | 35.29953 | 25626 ft | 466 kts | 104° |
| 2026-05-07 21:45 | 27.41811 | 35.33442 | 25934 ft | 468 kts | 104° |
| 2026-05-07 21:46 | 27.40981 | 35.36980 | 26224 ft | 470 kts | 104° |
| 2026-05-07 21:46 | 27.40143 | 35.40544 | 26512 ft | 472 kts | 104° |
| 2026-05-07 21:46 | 27.39302 | 35.44123 | 26783 ft | 474 kts | 104° |
| 2026-05-07 21:46 | 27.38461 | 35.47705 | 27050 ft | 475 kts | 104° |
| 2026-05-07 21:47 | 27.37614 | 35.51312 | 27312 ft | 477 kts | 104° |
| 2026-05-07 21:47 | 27.36763 | 35.54933 | 27557 ft | 479 kts | 104° |
| 2026-05-07 21:47 | 27.35911 | 35.58567 | 27801 ft | 481 kts | 104° |
| 2026-05-07 21:47 | 27.35058 | 35.62200 | 28031 ft | 482 kts | 104° |
| 2026-05-07 21:48 | 27.34209 | 35.65799 | 28339 ft | 482 kts | 104° |
| 2026-05-07 21:48 | 27.33351 | 35.69428 | 28659 ft | 481 kts | 104° |
| 2026-05-07 21:48 | 27.32489 | 35.73064 | 28980 ft | 480 kts | 104° |
| 2026-05-07 21:48 | 27.31628 | 35.76696 | 29315 ft | 480 kts | 105° |
| 2026-05-07 21:49 | 27.30769 | 35.80309 | 29646 ft | 479 kts | 105° |
| 2026-05-07 21:49 | 27.29907 | 35.83930 | 29977 ft | 479 kts | 105° |
| 2026-05-07 21:49 | 27.29042 | 35.87550 | 30268 ft | 478 kts | 105° |
| 2026-05-07 21:49 | 27.28181 | 35.91148 | 30556 ft | 477 kts | 105° |
| 2026-05-07 21:50 | 27.27321 | 35.94742 | 30835 ft | 477 kts | 105° |
| 2026-05-07 21:50 | 27.26460 | 35.98344 | 31118 ft | 476 kts | 105° |
| 2026-05-07 21:50 | 27.25599 | 36.01942 | 31401 ft | 476 kts | 105° |
| 2026-05-07 21:50 | 27.24740 | 36.05523 | 31690 ft | 475 kts | 105° |
| 2026-05-07 21:51 | 27.23888 | 36.09062 | 31977 ft | 475 kts | 105° |
| 2026-05-07 21:51 | 27.23025 | 36.12632 | 32260 ft | 474 kts | 105° |
| 2026-05-07 21:51 | 27.22161 | 36.16210 | 32549 ft | 474 kts | 105° |
| 2026-05-07 21:51 | 27.21299 | 36.19785 | 32842 ft | 473 kts | 105° |
| 2026-05-07 21:52 | 27.20443 | 36.23346 | 33118 ft | 473 kts | 105° |
| 2026-05-07 21:52 | 27.19583 | 36.26915 | 33411 ft | 473 kts | 105° |
| 2026-05-07 21:52 | 27.18720 | 36.30481 | 33689 ft | 472 kts | 105° |
| 2026-05-07 21:52 | 27.17861 | 36.34033 | 33962 ft | 472 kts | 106° |
| 2026-05-07 21:53 | 27.16999 | 36.37598 | 34189 ft | 473 kts | 106° |
| 2026-05-07 21:53 | 27.16136 | 36.41153 | 34410 ft | 473 kts | 106° |
| 2026-05-07 21:53 | 27.15267 | 36.44723 | 34625 ft | 474 kts | 106° |
| 2026-05-07 21:53 | 27.14408 | 36.48251 | 34834 ft | 474 kts | 106° |
| 2026-05-07 21:54 | 27.13529 | 36.51866 | 35047 ft | 475 kts | 107° |
| 2026-05-07 21:54 | 27.12669 | 36.55402 | 35239 ft | 476 kts | 107° |
| 2026-05-07 21:54 | 27.11795 | 36.58990 | 35434 ft | 476 kts | 107° |
| 2026-05-07 21:54 | 27.10922 | 36.62568 | 35630 ft | 477 kts | 107° |
| 2026-05-07 21:55 | 27.10044 | 36.66161 | 35826 ft | 477 kts | 107° |
| 2026-05-07 21:55 | 27.09167 | 36.69745 | 36014 ft | 477 kts | 107° |
| 2026-05-07 21:55 | 27.08287 | 36.73343 | 36203 ft | 478 kts | 107° |
| 2026-05-07 21:55 | 27.07404 | 36.76943 | 36371 ft | 478 kts | 108° |
| 2026-05-07 21:56 | 27.06520 | 36.80533 | 36554 ft | 479 kts | 108° |
| 2026-05-07 21:56 | 27.05628 | 36.84140 | 36701 ft | 480 kts | 108° |
| 2026-05-07 21:56 | 27.04733 | 36.87751 | 36873 ft | 480 kts | 108° |
| 2026-05-07 21:56 | 27.03841 | 36.91356 | 36956 ft | 482 kts | 108° |
| 2026-05-07 21:57 | 27.02050 | 36.98614 | 36965 ft | 484 kts | 109° |
| 2026-05-07 21:57 | 27.00258 | 37.05844 | 36975 ft | 484 kts | 109° |
| 2026-05-07 21:58 | 26.98450 | 37.13115 | 36979 ft | 484 kts | 109° |
| 2026-05-07 21:58 | 26.96645 | 37.20391 | 36981 ft | 485 kts | 109° |
| 2026-05-07 21:59 | 26.94827 | 37.27663 | 36986 ft | 485 kts | 110° |
| 2026-05-07 21:59 | 26.93000 | 37.34950 | 36990 ft | 485 kts | 110° |
| 2026-05-07 22:00 | 26.91179 | 37.42229 | 36990 ft | 485 kts | 110° |
| 2026-05-07 22:00 | 26.89351 | 37.49507 | 36986 ft | 486 kts | 110° |
| 2026-05-07 22:01 | 26.87529 | 37.56736 | 36988 ft | 485 kts | 110° |
| 2026-05-07 22:01 | 26.85681 | 37.64020 | 36979 ft | 486 kts | 111° |
| 2026-05-07 22:02 | 26.84147 | 37.70071 | 36977 ft | 486 kts | 111° |
| 2026-05-07 22:02 | 26.82306 | 37.77339 | 36971 ft | 485 kts | 111° |
| 2026-05-07 22:03 | 26.80466 | 37.84599 | 36963 ft | 485 kts | 111° |
| 2026-05-07 22:03 | 26.78602 | 37.91913 | 36961 ft | 485 kts | 112° |
| 2026-05-07 22:04 | 26.76739 | 37.99173 | 36954 ft | 486 kts | 112° |
| 2026-05-07 22:04 | 26.74880 | 38.06448 | 36951 ft | 486 kts | 112° |
| 2026-05-07 22:05 | 26.73024 | 38.13712 | 36951 ft | 486 kts | 112° |
| 2026-05-07 22:05 | 26.71176 | 38.20924 | 36952 ft | 485 kts | 113° |
| 2026-05-07 22:06 | 26.69301 | 38.28172 | 36949 ft | 486 kts | 113° |
| 2026-05-07 22:06 | 26.67421 | 38.35428 | 36958 ft | 486 kts | 114° |
| 2026-05-07 22:07 | 26.65542 | 38.42691 | 36958 ft | 487 kts | 114° |
| 2026-05-07 22:07 | 26.63657 | 38.49976 | 36966 ft | 488 kts | 114° |
| 2026-05-07 22:08 | 26.61765 | 38.57255 | 36973 ft | 488 kts | 114° |
| 2026-05-07 22:08 | 26.59872 | 38.64493 | 36970 ft | 489 kts | 114° |
| 2026-05-07 22:09 | 26.57959 | 38.71793 | 36964 ft | 490 kts | 114° |
| 2026-05-07 22:09 | 26.56047 | 38.79121 | 36965 ft | 491 kts | 115° |
| 2026-05-07 22:10 | 26.54128 | 38.86445 | 36961 ft | 492 kts | 115° |
| 2026-05-07 22:10 | 26.52194 | 38.93778 | 36965 ft | 493 kts | 115° |
| 2026-05-07 22:11 | 26.50251 | 39.01124 | 36963 ft | 494 kts | 115° |
| 2026-05-07 22:11 | 26.48313 | 39.08452 | 36969 ft | 495 kts | 115° |
| 2026-05-07 22:12 | 26.46359 | 39.15827 | 36978 ft | 496 kts | 115° |
| 2026-05-07 22:12 | 26.44409 | 39.23211 | 36982 ft | 498 kts | 113° |
| 2026-05-07 22:13 | 26.43752 | 39.27050 | 36982 ft | 509 kts | 103° |
| 2026-05-07 22:13 | 26.43615 | 39.31020 | 36987 ft | 519 kts | 94° |
| 2026-05-07 22:13 | 26.44040 | 39.39074 | 36996 ft | 520 kts | 93° |
| 2026-05-07 22:14 | 26.44450 | 39.47088 | 36997 ft | 520 kts | 94° |
| 2026-05-07 22:14 | 26.44841 | 39.55148 | 37004 ft | 521 kts | 94° |
| 2026-05-07 22:15 | 26.45235 | 39.63219 | 37005 ft | 522 kts | 94° |
| 2026-05-07 22:15 | 26.45628 | 39.71304 | 37008 ft | 522 kts | 94° |
| 2026-05-07 22:16 | 26.46018 | 39.79417 | 37009 ft | 523 kts | 94° |
| 2026-05-07 22:16 | 26.46396 | 39.87477 | 37012 ft | 524 kts | 94° |
| 2026-05-07 22:17 | 26.46775 | 39.95603 | 37008 ft | 525 kts | 94° |
| 2026-05-07 22:17 | 26.47150 | 40.03755 | 37002 ft | 526 kts | 94° |
| 2026-05-07 22:18 | 26.47714 | 40.15968 | 36995 ft | 526 kts | 94° |
| 2026-05-07 22:19 | 26.48073 | 40.24080 | 36986 ft | 526 kts | 94° |
| 2026-05-07 22:19 | 26.48428 | 40.32243 | 36988 ft | 527 kts | 94° |
| 2026-05-07 22:20 | 26.48791 | 40.40415 | 36985 ft | 528 kts | 94° |
| 2026-05-07 22:20 | 26.49145 | 40.48591 | 36988 ft | 528 kts | 94° |
| 2026-05-07 22:21 | 26.49486 | 40.56784 | 36977 ft | 528 kts | 94° |
| 2026-05-07 22:21 | 26.49827 | 40.64975 | 36977 ft | 529 kts | 94° |
| 2026-05-07 22:22 | 26.50168 | 40.73125 | 36971 ft | 530 kts | 94° |
| 2026-05-07 22:22 | 26.50508 | 40.81341 | 36971 ft | 530 kts | 95° |
| 2026-05-07 22:23 | 26.50833 | 40.89576 | 36967 ft | 531 kts | 94° |
| 2026-05-07 22:23 | 26.51161 | 40.97798 | 36982 ft | 530 kts | 95° |
| 2026-05-07 22:24 | 26.51320 | 41.05985 | 36979 ft | 521 kts | 102° |
| 2026-05-07 22:24 | 26.50751 | 41.14027 | 36980 ft | 520 kts | 102° |
| 2026-05-07 22:25 | 26.50191 | 41.22026 | 36969 ft | 520 kts | 102° |
| 2026-05-07 22:25 | 26.49621 | 41.30063 | 36967 ft | 520 kts | 103° |
| 2026-05-07 22:26 | 26.49043 | 41.38101 | 36957 ft | 520 kts | 102° |
| 2026-05-07 22:26 | 26.48462 | 41.46143 | 36961 ft | 520 kts | 103° |
| 2026-05-07 22:27 | 26.47878 | 41.54199 | 36964 ft | 520 kts | 102° |
| 2026-05-07 22:27 | 26.47298 | 41.62186 | 36962 ft | 520 kts | 102° |
| 2026-05-07 22:28 | 26.46708 | 41.70222 | 36988 ft | 518 kts | 104° |
| 2026-05-07 22:28 | 26.46121 | 41.78198 | 36958 ft | 515 kts | 104° |
| 2026-05-07 22:29 | 26.45523 | 41.86163 | 36949 ft | 514 kts | 104° |
| 2026-05-07 22:29 | 26.44912 | 41.94110 | 36945 ft | 514 kts | 104° |
| 2026-05-07 22:30 | 26.44307 | 42.02061 | 36936 ft | 515 kts | 104° |
| 2026-05-07 22:30 | 26.43704 | 42.09970 | 36938 ft | 515 kts | 104° |
| 2026-05-07 22:31 | 26.43089 | 42.17952 | 36935 ft | 516 kts | 104° |
| 2026-05-07 22:31 | 26.42467 | 42.25934 | 36935 ft | 517 kts | 105° |
| 2026-05-07 22:32 | 26.41847 | 42.33913 | 36941 ft | 517 kts | 104° |
| 2026-05-07 22:32 | 26.41220 | 42.41908 | 36952 ft | 517 kts | 105° |
| 2026-05-07 22:33 | 26.40587 | 42.49891 | 36960 ft | 517 kts | 105° |
| 2026-05-07 22:33 | 26.39949 | 42.57869 | 36959 ft | 516 kts | 105° |
| 2026-05-07 22:34 | 26.39309 | 42.65800 | 36967 ft | 516 kts | 105° |
| 2026-05-07 22:34 | 26.38662 | 42.73761 | 36975 ft | 516 kts | 105° |
| 2026-05-07 22:35 | 26.38020 | 42.81723 | 36977 ft | 516 kts | 105° |
| 2026-05-07 22:35 | 26.37351 | 42.89876 | 36981 ft | 516 kts | 105° |
| 2026-05-07 22:36 | 26.36694 | 42.97769 | 36987 ft | 516 kts | 105° |
| 2026-05-07 22:36 | 26.36029 | 43.05728 | 36974 ft | 516 kts | 105° |
| 2026-05-07 22:37 | 26.35372 | 43.13632 | 36976 ft | 516 kts | 105° |
| 2026-05-07 22:37 | 26.34696 | 43.21598 | 36980 ft | 515 kts | 105° |
| 2026-05-07 22:38 | 26.34016 | 43.29550 | 36978 ft | 515 kts | 105° |
| 2026-05-07 22:38 | 26.33336 | 43.37503 | 36973 ft | 516 kts | 105° |
| 2026-05-07 22:39 | 26.32655 | 43.45462 | 36972 ft | 516 kts | 105° |
| 2026-05-07 22:39 | 26.31968 | 43.53438 | 36972 ft | 516 kts | 105° |
| 2026-05-07 22:40 | 26.31275 | 43.61348 | 36970 ft | 516 kts | 105° |
| 2026-05-07 22:40 | 26.30578 | 43.69324 | 36966 ft | 516 kts | 105° |
| 2026-05-07 22:41 | 26.29553 | 43.77160 | 36980 ft | 501 kts | 116° |
| 2026-05-07 22:41 | 26.28440 | 43.80794 | 36979 ft | 488 kts | 124° |
| 2026-05-07 22:41 | 26.26978 | 43.84148 | 36977 ft | 481 kts | 128° |
| 2026-05-07 22:42 | 26.23919 | 43.90781 | 36973 ft | 481 kts | 128° |
| 2026-05-07 22:42 | 26.20885 | 43.97379 | 36969 ft | 482 kts | 128° |
| 2026-05-07 22:43 | 26.17831 | 44.04025 | 36962 ft | 483 kts | 128° |
| 2026-05-07 22:43 | 26.14762 | 44.10675 | 36957 ft | 483 kts | 128° |
| 2026-05-07 22:44 | 26.11688 | 44.17334 | 36954 ft | 484 kts | 128° |
| 2026-05-07 22:44 | 26.08601 | 44.23998 | 36956 ft | 485 kts | 128° |
| 2026-05-07 22:45 | 26.05534 | 44.30619 | 36959 ft | 485 kts | 128° |
| 2026-05-07 22:45 | 26.02440 | 44.37287 | 36965 ft | 486 kts | 128° |
| 2026-05-07 22:46 | 25.99343 | 44.43962 | 36971 ft | 486 kts | 128° |
| 2026-05-07 22:46 | 25.96236 | 44.50645 | 36973 ft | 486 kts | 128° |
| 2026-05-07 22:47 | 25.93121 | 44.57317 | 36979 ft | 487 kts | 128° |
| 2026-05-07 22:47 | 25.90000 | 44.63994 | 36984 ft | 487 kts | 127° |
| 2026-05-07 22:48 | 25.86898 | 44.70628 | 36989 ft | 487 kts | 127° |
| 2026-05-07 22:48 | 25.83776 | 44.77291 | 36725 ft | 484 kts | 127° |
| 2026-05-07 22:48 | 25.82250 | 44.80560 | 36396 ft | 474 kts | 127° |
| 2026-05-07 22:49 | 25.80742 | 44.83792 | 35971 ft | 468 kts | 127° |
| 2026-05-07 22:49 | 25.79249 | 44.86981 | 35522 ft | 463 kts | 127° |
| 2026-05-07 22:49 | 25.77764 | 44.90138 | 35070 ft | 459 kts | 127° |
| 2026-05-07 22:49 | 25.76295 | 44.93253 | 34617 ft | 455 kts | 127° |
| 2026-05-07 22:50 | 25.74814 | 44.96391 | 34174 ft | 450 kts | 127° |
| 2026-05-07 22:50 | 25.73364 | 44.99456 | 33718 ft | 446 kts | 127° |
| 2026-05-07 22:50 | 25.71949 | 45.02453 | 33267 ft | 442 kts | 127° |
| 2026-05-07 22:50 | 25.70536 | 45.05453 | 32805 ft | 438 kts | 126° |
| 2026-05-07 22:51 | 25.69130 | 45.08432 | 32356 ft | 433 kts | 126° |
| 2026-05-07 22:51 | 25.67736 | 45.11382 | 31914 ft | 430 kts | 126° |
| 2026-05-07 22:51 | 25.66358 | 45.14295 | 31479 ft | 426 kts | 126° |
| 2026-05-07 22:51 | 25.64986 | 45.17192 | 31045 ft | 422 kts | 125° |
| 2026-05-07 22:52 | 25.63631 | 45.20056 | 30627 ft | 419 kts | 125° |
| 2026-05-07 22:52 | 25.62282 | 45.22908 | 30218 ft | 416 kts | 124° |
| 2026-05-07 22:52 | 25.60942 | 45.25738 | 29735 ft | 413 kts | 124° |
| 2026-05-07 22:52 | 25.59616 | 45.28538 | 29278 ft | 410 kts | 124° |
| 2026-05-07 22:53 | 25.58296 | 45.31325 | 28829 ft | 407 kts | 124° |
| 2026-05-07 22:53 | 25.56985 | 45.34090 | 28381 ft | 403 kts | 124° |
| 2026-05-07 22:53 | 25.55689 | 45.36824 | 27948 ft | 400 kts | 124° |
| 2026-05-07 22:53 | 25.54415 | 45.39509 | 27517 ft | 397 kts | 124° |
| 2026-05-07 22:54 | 25.53137 | 45.42198 | 27095 ft | 394 kts | 124° |
| 2026-05-07 22:54 | 25.51859 | 45.44879 | 26719 ft | 389 kts | 124° |
| 2026-05-07 22:54 | 25.50621 | 45.47482 | 26592 ft | 377 kts | 124° |
| 2026-05-07 22:54 | 25.49417 | 45.50013 | 26467 ft | 366 kts | 124° |
| 2026-05-07 22:55 | 25.48252 | 45.52469 | 26348 ft | 354 kts | 124° |
| 2026-05-07 22:55 | 25.47120 | 45.54857 | 26124 ft | 347 kts | 124° |
| 2026-05-07 22:55 | 25.46007 | 45.57199 | 25797 ft | 343 kts | 124° |
| 2026-05-07 22:55 | 25.44896 | 45.59524 | 25447 ft | 340 kts | 124° |
| 2026-05-07 22:56 | 25.43791 | 45.61824 | 25098 ft | 337 kts | 123° |
| 2026-05-07 22:56 | 25.42693 | 45.64108 | 24747 ft | 335 kts | 123° |
| 2026-05-07 22:56 | 25.41602 | 45.66377 | 24401 ft | 333 kts | 123° |
| 2026-05-07 22:56 | 25.40521 | 45.68632 | 24056 ft | 331 kts | 122° |
| 2026-05-07 22:57 | 25.39449 | 45.70874 | 23721 ft | 329 kts | 122° |
| 2026-05-07 22:57 | 25.38383 | 45.73105 | 23330 ft | 327 kts | 122° |
| 2026-05-07 22:57 | 25.37336 | 45.75296 | 22931 ft | 326 kts | 122° |
| 2026-05-07 22:57 | 25.36278 | 45.77507 | 22522 ft | 325 kts | 122° |
| 2026-05-07 22:58 | 25.35365 | 45.79795 | 22149 ft | 327 kts | 113° |
| 2026-05-07 22:58 | 25.34627 | 45.82169 | 21771 ft | 326 kts | 113° |
| 2026-05-07 22:58 | 25.33891 | 45.84536 | 21410 ft | 325 kts | 113° |
| 2026-05-07 22:58 | 25.33161 | 45.86896 | 21054 ft | 324 kts | 113° |
| 2026-05-07 22:59 | 25.32435 | 45.89249 | 20699 ft | 323 kts | 113° |
| 2026-05-07 22:59 | 25.31711 | 45.91594 | 20368 ft | 322 kts | 113° |
| 2026-05-07 22:59 | 25.30989 | 45.93922 | 20039 ft | 320 kts | 114° |
| 2026-05-07 22:59 | 25.30264 | 45.96250 | 19726 ft | 319 kts | 114° |
| 2026-05-07 23:00 | 25.29544 | 45.98556 | 19425 ft | 317 kts | 114° |
| 2026-05-07 23:00 | 25.28826 | 46.00856 | 19134 ft | 316 kts | 114° |
| 2026-05-07 23:00 | 25.28111 | 46.03146 | 18849 ft | 315 kts | 114° |
| 2026-05-07 23:00 | 25.27401 | 46.05426 | 18564 ft | 313 kts | 114° |
| 2026-05-07 23:01 | 25.26691 | 46.07698 | 18266 ft | 312 kts | 114° |
| 2026-05-07 23:01 | 25.25986 | 46.09953 | 17957 ft | 309 kts | 114° |
| 2026-05-07 23:01 | 25.25289 | 46.12190 | 17671 ft | 307 kts | 114° |
| 2026-05-07 23:01 | 25.24607 | 46.14377 | 17400 ft | 304 kts | 114° |
| 2026-05-07 23:02 | 25.23919 | 46.16571 | 17117 ft | 301 kts | 114° |
| 2026-05-07 23:02 | 25.23236 | 46.18749 | 16846 ft | 299 kts | 114° |
| 2026-05-07 23:02 | 25.22560 | 46.20907 | 16582 ft | 296 kts | 114° |
| 2026-05-07 23:02 | 25.21889 | 46.23047 | 16315 ft | 293 kts | 114° |
| 2026-05-07 23:03 | 25.21224 | 46.25169 | 16045 ft | 291 kts | 114° |
| 2026-05-07 23:03 | 25.20565 | 46.27268 | 15789 ft | 289 kts | 114° |
| 2026-05-07 23:03 | 25.19909 | 46.29358 | 15524 ft | 287 kts | 113° |
| 2026-05-07 23:03 | 25.19257 | 46.31438 | 15264 ft | 285 kts | 113° |
| 2026-05-07 23:04 | 25.18610 | 46.33492 | 15000 ft | 283 kts | 113° |
| 2026-05-07 23:04 | 25.17964 | 46.35538 | 14747 ft | 281 kts | 113° |
| 2026-05-07 23:04 | 25.17360 | 46.37452 | 14508 ft | 280 kts | 113° |
| 2026-05-07 23:04 | 25.16722 | 46.39474 | 14255 ft | 278 kts | 112° |
| 2026-05-07 23:05 | 25.16022 | 46.41449 | 14003 ft | 274 kts | 122° |
| 2026-05-07 23:05 | 25.14930 | 46.43135 | 13735 ft | 268 kts | 137° |
| 2026-05-07 23:05 | 25.13494 | 46.44404 | 13436 ft | 263 kts | 152° |
| 2026-05-07 23:05 | 25.11908 | 46.45403 | 13134 ft | 262 kts | 153° |
| 2026-05-07 23:06 | 25.10327 | 46.46404 | 12825 ft | 262 kts | 152° |
| 2026-05-07 23:06 | 25.08754 | 46.47405 | 12529 ft | 261 kts | 152° |
| 2026-05-07 23:06 | 25.07187 | 46.48403 | 12232 ft | 259 kts | 152° |
| 2026-05-07 23:06 | 25.05647 | 46.49382 | 11947 ft | 258 kts | 152° |
| 2026-05-07 23:07 | 25.04094 | 46.50372 | 11659 ft | 257 kts | 152° |
| 2026-05-07 23:07 | 25.02551 | 46.51354 | 11378 ft | 256 kts | 152° |
| 2026-05-07 23:07 | 25.01012 | 46.52330 | 11096 ft | 255 kts | 152° |
| 2026-05-07 23:07 | 24.99479 | 46.53301 | 10809 ft | 253 kts | 152° |
| 2026-05-07 23:08 | 24.97956 | 46.54266 | 10525 ft | 252 kts | 152° |
| 2026-05-07 23:08 | 24.96441 | 46.55229 | 10221 ft | 251 kts | 152° |
| 2026-05-07 23:08 | 24.94934 | 46.56187 | 9937 ft | 249 kts | 152° |
| 2026-05-07 23:08 | 24.93435 | 46.57137 | 9595 ft | 248 kts | 152° |
| 2026-05-07 23:09 | 24.91943 | 46.58079 | 9271 ft | 247 kts | 151° |
| 2026-05-07 23:09 | 24.90463 | 46.59014 | 8922 ft | 245 kts | 151° |
| 2026-05-07 23:09 | 24.88986 | 46.59948 | 8579 ft | 244 kts | 151° |
| 2026-05-07 23:09 | 24.87521 | 46.60874 | 8259 ft | 242 kts | 150° |
| 2026-05-07 23:10 | 24.86560 | 46.61483 | 8039 ft | 241 kts | 150° |
| 2026-05-07 23:10 | 24.84977 | 46.62487 | 7669 ft | 239 kts | 150° |
| 2026-05-07 23:10 | 24.83537 | 46.63397 | 7335 ft | 238 kts | 149° |
| 2026-05-07 23:10 | 24.82102 | 46.64301 | 7072 ft | 236 kts | 150° |
| 2026-05-07 23:11 | 24.80677 | 46.65200 | 7027 ft | 237 kts | 149° |
| 2026-05-07 23:11 | 24.79243 | 46.66104 | 7023 ft | 238 kts | 149° |
| 2026-05-07 23:11 | 24.77807 | 46.67009 | 7027 ft | 238 kts | 149° |
| 2026-05-07 23:11 | 24.76369 | 46.67914 | 7022 ft | 238 kts | 149° |
| 2026-05-07 23:12 | 24.74950 | 46.68807 | 7023 ft | 238 kts | 149° |
| 2026-05-07 23:12 | 24.73511 | 46.69712 | 7018 ft | 238 kts | 149° |
| 2026-05-07 23:12 | 24.72072 | 46.70617 | 7018 ft | 238 kts | 149° |
| 2026-05-07 23:12 | 24.70637 | 46.71521 | 7021 ft | 239 kts | 149° |
| 2026-05-07 23:13 | 24.69193 | 46.72432 | 7020 ft | 239 kts | 149° |
| 2026-05-07 23:13 | 24.67755 | 46.73340 | 7015 ft | 239 kts | 149° |
| 2026-05-07 23:13 | 24.66315 | 46.74250 | 7015 ft | 239 kts | 149° |
| 2026-05-07 23:13 | 24.64876 | 46.75157 | 7012 ft | 239 kts | 149° |
| 2026-05-07 23:14 | 24.63435 | 46.76063 | 7011 ft | 238 kts | 149° |
| 2026-05-07 23:14 | 24.61995 | 46.76966 | 7005 ft | 237 kts | 149° |
| 2026-05-07 23:14 | 24.60577 | 46.77854 | 7003 ft | 238 kts | 149° |
| 2026-05-07 23:14 | 24.59121 | 46.78764 | 7002 ft | 237 kts | 149° |
| 2026-05-07 23:15 | 24.57708 | 46.79648 | 6995 ft | 237 kts | 149° |
| 2026-05-07 23:15 | 24.56280 | 46.80541 | 6997 ft | 237 kts | 149° |
| 2026-05-07 23:15 | 24.54847 | 46.81439 | 6996 ft | 237 kts | 149° |
| 2026-05-07 23:15 | 24.53419 | 46.82335 | 6992 ft | 237 kts | 149° |
| 2026-05-07 23:16 | 24.51986 | 46.83237 | 6993 ft | 237 kts | 149° |
| 2026-05-07 23:16 | 24.50594 | 46.84112 | 6993 ft | 222 kts | 149° |
| 2026-05-07 23:16 | 24.49299 | 46.84924 | 6995 ft | 207 kts | 149° |
| 2026-05-07 23:16 | 24.48068 | 46.85697 | 6997 ft | 203 kts | 149° |
| 2026-05-07 23:17 | 24.46841 | 46.86470 | 6996 ft | 203 kts | 149° |
| 2026-05-07 23:17 | 24.45623 | 46.87238 | 6996 ft | 202 kts | 149° |
| 2026-05-07 23:17 | 24.44404 | 46.88008 | 6994 ft | 202 kts | 149° |
| 2026-05-07 23:17 | 24.43182 | 46.88779 | 6996 ft | 202 kts | 149° |
| 2026-05-07 23:18 | 24.41981 | 46.89535 | 6994 ft | 202 kts | 150° |
| 2026-05-07 23:18 | 24.40761 | 46.90301 | 6991 ft | 202 kts | 150° |
| 2026-05-07 23:18 | 24.39542 | 46.91067 | 6992 ft | 202 kts | 150° |
| 2026-05-07 23:18 | 24.38322 | 46.91833 | 6989 ft | 202 kts | 150° |
| 2026-05-07 23:19 | 24.37124 | 46.92632 | 6988 ft | 201 kts | 141° |
| 2026-05-07 23:19 | 24.36210 | 46.93789 | 6987 ft | 203 kts | 120° |
| 2026-05-07 23:19 | 24.35776 | 46.95269 | 6990 ft | 207 kts | 97° |
| 2026-05-07 23:19 | 24.35922 | 46.96853 | 6995 ft | 213 kts | 75° |
| 2026-05-07 23:20 | 24.36597 | 46.98319 | 6988 ft | 218 kts | 63° |
| 2026-05-07 23:20 | 24.37357 | 46.99750 | 6983 ft | 214 kts | 63° |
| 2026-05-07 23:20 | 24.38257 | 47.01036 | 6983 ft | 216 kts | 44° |
| 2026-05-07 23:20 | 24.39526 | 47.01890 | 6986 ft | 220 kts | 22° |
| 2026-05-07 23:21 | 24.41036 | 47.02175 | 6987 ft | 222 kts | 358° |
| 2026-05-07 23:21 | 24.42541 | 47.01803 | 6988 ft | 224 kts | 334° |
| 2026-05-07 23:21 | 24.43906 | 47.00972 | 6988 ft | 225 kts | 329° |
| 2026-05-07 23:21 | 24.45266 | 47.00116 | 6988 ft | 225 kts | 329° |
| 2026-05-07 23:22 | 24.46628 | 46.99263 | 6989 ft | 226 kts | 329° |
| 2026-05-07 23:22 | 24.47994 | 46.98408 | 6991 ft | 225 kts | 330° |
| 2026-05-07 23:22 | 24.49357 | 46.97556 | 6996 ft | 226 kts | 330° |
| 2026-05-07 23:22 | 24.50722 | 46.96701 | 6996 ft | 227 kts | 329° |
| 2026-05-07 23:23 | 24.52098 | 46.95838 | 6997 ft | 228 kts | 330° |
| 2026-05-07 23:23 | 24.53470 | 46.94977 | 6999 ft | 228 kts | 330° |
| 2026-05-07 23:23 | 24.54850 | 46.94113 | 6998 ft | 228 kts | 330° |
| 2026-05-07 23:23 | 24.56200 | 46.93265 | 7000 ft | 225 kts | 330° |
| 2026-05-07 23:24 | 24.57555 | 46.92412 | 7003 ft | 224 kts | 330° |
| 2026-05-07 23:24 | 24.58906 | 46.91563 | 7003 ft | 223 kts | 330° |
| 2026-05-07 23:24 | 24.60252 | 46.90717 | 7009 ft | 223 kts | 330° |
| 2026-05-07 23:24 | 24.61601 | 46.89867 | 7006 ft | 223 kts | 330° |
| 2026-05-07 23:25 | 24.62945 | 46.89020 | 7011 ft | 223 kts | 330° |
| 2026-05-07 23:25 | 24.64288 | 46.88174 | 7008 ft | 223 kts | 330° |
| 2026-05-07 23:25 | 24.65692 | 46.87475 | 6997 ft | 220 kts | 356° |
| 2026-05-07 23:25 | 24.67208 | 46.87486 | 7023 ft | 219 kts | 3° |
| 2026-05-07 23:26 | 24.68705 | 46.87502 | 7006 ft | 211 kts | 3° |
| 2026-05-07 23:26 | 24.70153 | 46.87309 | 7015 ft | 210 kts | 344° |
| 2026-05-07 23:26 | 24.71507 | 46.86684 | 6895 ft | 212 kts | 333° |
| 2026-05-07 23:26 | 24.72797 | 46.85907 | 6674 ft | 212 kts | 331° |
| 2026-05-07 23:27 | 24.75357 | 46.84294 | 6155 ft | 212 kts | 331° |
| 2026-05-07 23:27 | 24.76639 | 46.83486 | 5887 ft | 213 kts | 332° |
| 2026-05-07 23:27 | 24.77920 | 46.82679 | 5651 ft | 211 kts | 333° |
| 2026-05-07 23:28 | 24.79170 | 46.81891 | 5353 ft | 208 kts | 334° |
| 2026-05-07 23:28 | 24.80414 | 46.81107 | 5088 ft | 204 kts | 334° |
| 2026-05-07 23:28 | 24.81634 | 46.80337 | 4834 ft | 200 kts | 335° |
| 2026-05-07 23:28 | 24.82832 | 46.79582 | 4580 ft | 196 kts | 335° |
| 2026-05-07 23:29 | 24.83998 | 46.78846 | 4329 ft | 191 kts | 335° |
| 2026-05-07 23:29 | 24.85131 | 46.78131 | 4089 ft | 184 kts | 335° |
| 2026-05-07 23:29 | 24.86210 | 46.77449 | 3868 ft | 171 kts | 335° |
| 2026-05-07 23:29 | 24.87184 | 46.76833 | 3668 ft | 154 kts | 334° |
| 2026-05-07 23:30 | 24.88090 | 46.76263 | 3476 ft | 147 kts | 334° |
| 2026-05-07 23:30 | 24.88959 | 46.75715 | 3277 ft | 142 kts | 331° |
| 2026-05-07 23:30 | 24.89816 | 46.75175 | 3092 ft | 141 kts | 331° |
| 2026-05-07 23:30 | 24.90667 | 46.74639 | 2904 ft | 140 kts | 332° |
| 2026-05-07 23:31 | 24.91508 | 46.74108 | 2727 ft | 139 kts | 332° |
| 2026-05-07 23:31 | 24.92341 | 46.73581 | 2535 ft | 138 kts | 331° |
| 2026-05-07 23:31 | 24.93176 | 46.73054 | 2354 ft | 140 kts | 329° |
| 2026-05-07 23:31 | 24.94013 | 46.72524 | 2159 ft | 142 kts | 328° |
| 2026-05-07 23:32 | 24.94868 | 46.71984 | 2037 ft | 137 kts | 330° |
| 2026-05-07 23:32 | 24.95586 | 46.71528 | 2032 ft | 89 kts | 330° |
| 2026-05-07 23:32 | 24.95870 | 46.71346 | 2035 ft | 22 kts | 323° |
| 2026-05-07 23:32 | 24.95949 | 46.71253 | 2029 ft | 17 kts | 306° |
| 2026-05-07 23:33 | 24.95966 | 46.71226 | 2037 ft | 0 kts | 303° |
| 2026-05-07 23:33 | 24.95973 | 46.71214 | 2032 ft | 8 kts | 302° |
| 2026-05-07 23:33 | 24.95998 | 46.71161 | 2035 ft | 8 kts | 292° |
| 2026-05-07 23:33 | 24.96008 | 46.71081 | 2034 ft | 11 kts | 266° |
| 2026-05-07 23:34 | 24.95987 | 46.71005 | 2038 ft | 10 kts | 243° |
| 2026-05-07 23:34 | 24.95956 | 46.70943 | 2038 ft | 9 kts | 240° |
| 2026-05-07 23:34 | 24.95923 | 46.70879 | 2037 ft | 11 kts | 243° |
| 2026-05-07 23:34 | 24.95945 | 46.70820 | 2037 ft | 10 kts | 327° |
| 2026-05-07 23:35 | 24.96006 | 46.70782 | 2037 ft | 11 kts | 330° |
| 2026-05-07 23:35 | 24.96087 | 46.70731 | 2043 ft | 15 kts | 330° |
| 2026-05-07 23:35 | 24.96184 | 46.70670 | 2037 ft | 17 kts | 330° |
| 2026-05-07 23:35 | 24.96295 | 46.70600 | 2041 ft | 19 kts | 330° |
| 2026-05-07 23:36 | 24.96394 | 46.70538 | 2037 ft | 12 kts | 330° |
| 2026-05-07 23:36 | 24.96407 | 46.70471 | 2037 ft | 10 kts | 242° |
| 2026-05-07 23:36 | 24.96372 | 46.70401 | 2038 ft | 11 kts | 240° |
| 2026-05-07 23:36 | 24.96334 | 46.70329 | 2040 ft | 11 kts | 239° |
| 2026-05-07 23:37 | 24.96296 | 46.70257 | 2041 ft | 9 kts | 240° |
| 2026-05-07 23:37 | 24.96286 | 46.70214 | 2042 ft | 5 kts | 288° |
| 2026-05-07 23:37 | 24.96300 | 46.70189 | 2038 ft | 3 kts | 306° |
| 2026-05-07 23:37 | 24.96312 | 46.70171 | 2039 ft | 2 kts | 307° |
| 2026-05-07 23:38 | 24.96316 | 46.70166 | 2035 ft | 0 kts | 308° |